Terminal Aerodrome Forecast
Issued by NWS

Home | Current Version | Previous Version | Text Only | Print | Product List | Glossary On
Versions: 1 2 3 4 5 6 7 8 9 10 11 12 13 14 15 16 17 18 19 20 21 22 23 24 25 26 27 28 29 30
000
FTUS45 KPIH 221735
TAFSUN
TAF
KSUN 221735Z 2218/2318 31010KT P6SM FEW120
     FM222000 17006KT P6SM FEW070 SCT120
     FM230300 32007KT P6SM VCSH SCT050 BKN120
     FM230600 33008KT 6SM -SN SCT020 BKN035 OVC050=

USA.gov is the U.S. government's official web portal to all federal, state and local government web resources and services.